Terminal Aerodrome Forecast
Issued by NWS

Home | Current Version | Previous Version | Text Only | Print | Product List | Glossary Off
Versions: 1 2 3 4 5 6 7 8 9 10 11 12 13 14 15

000
FTUS43 KMPX 010236 AAA
TAFRWF
TAF AMD
KRWF 010236Z 0103/0124 32012KT 5SM -RASN BR OVC007
     FM010500 32011KT P6SM -SN OVC008
     FM011000 31010KT P6SM OVC006
     FM011800 33008KT P6SM OVC015=

USA.gov is the U.S. government's official web portal to all federal, state and local government web resources and services.